Overview Statistics Trail Chart Weather Telemetry Raw packets
 

This is the latest recevied weather packets stored in our database for station/object KI6SYE. If no packets are shown the sender has not sent any weather packets the latest 10 day(s).

<< 108 109 110 111 112 113 114 >>
Time Temp. Humidity Pressure Rain* Wind** Luminosity Snow
1787858730 29.44° C 60% 1011.6 hPa 0 mm - 606 W/m² -
1787858426 28.89° C 61% 1012 hPa 0 mm - 257 W/m² -
1787858120 30° C 60% 1011.9 hPa 0 mm - 285 W/m² -
1787857815 30° C 58% 1011.9 hPa 0 mm - 784 W/m² -
1787857510 29.44° C 60% 1011.9 hPa 0 mm - 613 W/m² -
1787857214 29.44° C 64% 1012.1 hPa 0 mm - 906 W/m² -
1787856903 28.33° C 66% 1012.3 hPa 0 mm - 674 W/m² -
1787856603 28.33° C 70% 1012.5 hPa 0 mm - 304 W/m² -
1787856298 28.89° C 67% 1012.3 hPa 0 mm - 292 W/m² -
1787855994 28.89° C 70% 1012.5 hPa 0 mm - 323 W/m² -
1787855693 28.33° C 73% 1012.4 hPa 0 mm - 667 W/m² -
1787855388 27.78° C 77% 1012.6 hPa 0 mm - 746 W/m² -
1787855084 28.33° C 78% 1012.5 hPa 0 mm - 462 W/m² -
1787854779 27.78° C 79% 1012.5 hPa 0 mm - 843 W/m² -
1787854478 27.78° C 78% 1012.7 hPa 0 mm - 862 W/m² -
1787854173 27.78° C 78% 1012.6 hPa 0 mm - 599 W/m² -
1787853868 27.22° C 80% 1012.7 hPa 0 mm - 762 W/m² -
1787853566 27.78° C 79% 1012.8 hPa 0 mm - 843 W/m² -
1787853262 27.22° C 80% 1012.8 hPa 0 mm - 623 W/m² -
1787852956 27.22° C 80% 1012.7 hPa 0 mm - 818 W/m² -
1787852656 27.22° C 80% 1012.7 hPa 0 mm - 801 W/m² -
1787852355 26.67° C 82% 1012.8 hPa 0 mm - 743 W/m² -
1787852055 27.78° C 81% 1012.8 hPa 0 mm - 345 W/m² -
1787851754 27.78° C 80% 1012.4 hPa 0 mm - 354 W/m² -
1787851449 27.78° C 79% 1012.3 hPa 0 mm - 324 W/m² -

* Rain latest hour (hover to see other rain measurements)
** Current wind speed in m/s (hover to see current wind gust speed)